sensor_id;sensor_type;location;lat;lon;timestamp;temperature;humidity
73955;DHT22;62306;52.516;13.290;2023-07-31T00:01:57;16.90;99.90
73955;DHT22;62306;52.516;13.290;2023-07-31T00:04:24;16.80;99.90
73955;DHT22;62306;52.516;13.290;2023-07-31T00:06:51;16.80;99.90
73955;DHT22;62306;52.516;13.290;2023-07-31T00:09:18;16.80;99.90
73955;DHT22;62306;52.516;13.290;2023-07-31T00:11:47;16.70;99.90
73955;DHT22;62306;52.516;13.290;2023-07-31T00:14:14;16.70;99.90
73955;DHT22;62306;52.516;13.290;2023-07-31T00:16:41;16.60;99.90
73955;DHT22;62306;52.516;13.290;2023-07-31T00:19:08;16.60;99.90
73955;DHT22;62306;52.516;13.290;2023-07-31T00:21:35;16.60;99.90
73955;DHT22;62306;52.516;13.290;2023-07-31T00:24:02;16.60;99.90
73955;DHT22;62306;52.516;13.290;2023-07-31T00:26:29;16.60;99.90
73955;DHT22;62306;52.516;13.290;2023-07-31T00:28:57;16.60;99.90
73955;DHT22;62306;52.516;13.290;2023-07-31T00:31:24;16.60;99.90
73955;DHT22;62306;52.516;13.290;2023-07-31T00:33:52;16.60;99.90
73955;DHT22;62306;52.516;13.290;2023-07-31T00:36:19;16.50;99.90
73955;DHT22;62306;52.516;13.290;2023-07-31T00:38:46;16.60;99.90
73955;DHT22;62306;52.516;13.290;2023-07-31T00:41:13;16.60;99.90
73955;DHT22;62306;52.516;13.290;2023-07-31T00:43:40;16.60;99.90
73955;DHT22;62306;52.516;13.290;2023-07-31T00:46:08;16.60;99.90
73955;DHT22;62306;52.516;13.290;2023-07-31T00:48:35;16.60;99.90
73955;DHT22;62306;52.516;13.290;2023-07-31T00:51:03;16.60;99.90
73955;DHT22;62306;52.516;13.290;2023-07-31T00:53:31;16.60;99.90
73955;DHT22;62306;52.516;13.290;2023-07-31T00:55:58;16.60;99.90
73955;DHT22;62306;52.516;13.290;2023-07-31T00:58:25;16.70;99.90
73955;DHT22;62306;52.516;13.290;2023-07-31T01:00:53;16.70;99.90
73955;DHT22;62306;52.516;13.290;2023-07-31T01:03:21;16.70;99.90
73955;DHT22;62306;52.516;13.290;2023-07-31T01:05:56;16.80;99.90
73955;DHT22;62306;52.516;13.290;2023-07-31T01:08:34;16.80;99.90
73955;DHT22;62306;52.516;13.290;2023-07-31T01:11:13;16.80;99.90
73955;DHT22;62306;52.516;13.290;2023-07-31T01:13:41;16.80;99.90
73955;DHT22;62306;52.516;13.290;2023-07-31T01:16:09;16.80;99.90
73955;DHT22;62306;52.516;13.290;2023-07-31T01:18:37;16.80;99.90
73955;DHT22;62306;52.516;13.290;2023-07-31T01:21:17;16.80;99.90
73955;DHT22;62306;52.516;13.290;2023-07-31T01:24:15;16.80;99.90
73955;DHT22;62306;52.516;13.290;2023-07-31T01:26:49;16.80;99.90
73955;DHT22;62306;52.516;13.290;2023-07-31T01:29:25;16.80;99.90
73955;DHT22;62306;52.516;13.290;2023-07-31T01:31:57;16.70;99.90
73955;DHT22;62306;52.516;13.290;2023-07-31T01:34:28;16.70;99.90
73955;DHT22;62306;52.516;13.290;2023-07-31T01:36:56;16.70;99.90
73955;DHT22;62306;52.516;13.290;2023-07-31T01:39:23;16.70;99.90
73955;DHT22;62306;52.516;13.290;2023-07-31T01:41:51;16.80;99.90
73955;DHT22;62306;52.516;13.290;2023-07-31T01:44:18;16.80;99.90
73955;DHT22;62306;52.516;13.290;2023-07-31T01:46:45;16.80;99.90
73955;DHT22;62306;52.516;13.290;2023-07-31T01:49:12;16.80;99.90
73955;DHT22;62306;52.516;13.290;2023-07-31T01:51:39;16.80;99.90
73955;DHT22;62306;52.516;13.290;2023-07-31T01:54:06;16.80;99.90
73955;DHT22;62306;52.516;13.290;2023-07-31T01:56:33;16.90;99.90
73955;DHT22;62306;52.516;13.290;2023-07-31T01:59:02;16.90;99.90
73955;DHT22;62306;52.516;13.290;2023-07-31T02:01:29;16.90;99.90
73955;DHT22;62306;52.516;13.290;2023-07-31T02:03:55;17.00;99.90
73955;DHT22;62306;52.516;13.290;2023-07-31T02:06:23;16.90;99.90
73955;DHT22;62306;52.516;13.290;2023-07-31T02:08:50;16.80;99.90
73955;DHT22;62306;52.516;13.290;2023-07-31T02:11:17;16.80;99.90
73955;DHT22;62306;52.516;13.290;2023-07-31T02:13:44;16.80;99.90
73955;DHT22;62306;52.516;13.290;2023-07-31T02:16:12;16.80;99.90
73955;DHT22;62306;52.516;13.290;2023-07-31T02:18:39;16.80;99.90
73955;DHT22;62306;52.516;13.290;2023-07-31T02:21:06;16.90;99.90
73955;DHT22;62306;52.516;13.290;2023-07-31T02:23:33;16.90;99.90
73955;DHT22;62306;52.516;13.290;2023-07-31T02:26:00;16.90;99.90
73955;DHT22;62306;52.516;13.290;2023-07-31T02:28:27;16.90;99.90
73955;DHT22;62306;52.516;13.290;2023-07-31T02:30:54;16.90;99.90
73955;DHT22;62306;52.516;13.290;2023-07-31T02:33:21;16.90;99.90
73955;DHT22;62306;52.516;13.290;2023-07-31T02:35:48;16.90;99.90
73955;DHT22;62306;52.516;13.290;2023-07-31T02:38:15;16.90;99.90
73955;DHT22;62306;52.516;13.290;2023-07-31T02:40:42;16.90;99.90
73955;DHT22;62306;52.516;13.290;2023-07-31T02:43:09;16.90;99.90
73955;DHT22;62306;52.516;13.290;2023-07-31T02:45:36;16.90;99.90
73955;DHT22;62306;52.516;13.290;2023-07-31T02:48:03;16.90;99.90
73955;DHT22;62306;52.516;13.290;2023-07-31T02:50:32;16.90;99.90
73955;DHT22;62306;52.516;13.290;2023-07-31T02:52:59;16.90;99.90
73955;DHT22;62306;52.516;13.290;2023-07-31T02:55:25;16.80;99.90
73955;DHT22;62306;52.516;13.290;2023-07-31T02:57:52;16.80;99.90
73955;DHT22;62306;52.516;13.290;2023-07-31T03:00:19;16.80;99.90
73955;DHT22;62306;52.516;13.290;2023-07-31T03:02:46;16.80;99.90
73955;DHT22;62306;52.516;13.290;2023-07-31T03:05:13;16.70;99.90
73955;DHT22;62306;52.516;13.290;2023-07-31T03:07:41;16.70;99.90
73955;DHT22;62306;52.516;13.290;2023-07-31T03:10:08;16.80;99.90
73955;DHT22;62306;52.516;13.290;2023-07-31T03:12:35;16.70;99.90
73955;DHT22;62306;52.516;13.290;2023-07-31T03:15:02;16.80;99.90
73955;DHT22;62306;52.516;13.290;2023-07-31T03:17:29;16.70;99.90
73955;DHT22;62306;52.516;13.290;2023-07-31T03:19:56;16.80;99.90
73955;DHT22;62306;52.516;13.290;2023-07-31T03:22:23;16.70;99.90
73955;DHT22;62306;52.516;13.290;2023-07-31T03:24:51;16.70;99.90
73955;DHT22;62306;52.516;13.290;2023-07-31T03:27:18;16.70;99.90
73955;DHT22;62306;52.516;13.290;2023-07-31T03:29:45;16.60;99.90
73955;DHT22;62306;52.516;13.290;2023-07-31T03:32:12;16.60;99.90
73955;DHT22;62306;52.516;13.290;2023-07-31T03:34:39;16.60;99.90
73955;DHT22;62306;52.516;13.290;2023-07-31T03:37:06;16.60;99.90
73955;DHT22;62306;52.516;13.290;2023-07-31T03:39:34;16.60;99.90
73955;DHT22;62306;52.516;13.290;2023-07-31T03:42:03;16.60;99.90
73955;DHT22;62306;52.516;13.290;2023-07-31T03:44:30;16.60;99.90
73955;DHT22;62306;52.516;13.290;2023-07-31T03:46:57;16.60;99.90
73955;DHT22;62306;52.516;13.290;2023-07-31T03:49:24;16.60;99.90
73955;DHT22;62306;52.516;13.290;2023-07-31T03:51:51;16.60;99.90
73955;DHT22;62306;52.516;13.290;2023-07-31T03:54:18;16.60;99.90
73955;DHT22;62306;52.516;13.290;2023-07-31T03:56:45;16.60;99.90
73955;DHT22;62306;52.516;13.290;2023-07-31T03:59:13;16.60;99.90
73955;DHT22;62306;52.516;13.290;2023-07-31T04:01:40;16.60;99.90
73955;DHT22;62306;52.516;13.290;2023-07-31T04:04:07;16.50;99.90
73955;DHT22;62306;52.516;13.290;2023-07-31T04:06:34;16.60;99.90
73955;DHT22;62306;52.516;13.290;2023-07-31T04:09:02;16.60;99.90
73955;DHT22;62306;52.516;13.290;2023-07-31T04:11:29;16.60;99.90
73955;DHT22;62306;52.516;13.290;2023-07-31T04:13:55;16.60;99.90
73955;DHT22;62306;52.516;13.290;2023-07-31T04:16:24;16.60;99.90
73955;DHT22;62306;52.516;13.290;2023-07-31T04:18:51;16.60;99.90
73955;DHT22;62306;52.516;13.290;2023-07-31T04:21:18;16.60;99.90
73955;DHT22;62306;52.516;13.290;2023-07-31T04:23:45;16.60;99.90
73955;DHT22;62306;52.516;13.290;2023-07-31T04:26:12;16.70;99.90
73955;DHT22;62306;52.516;13.290;2023-07-31T04:28:38;16.70;99.90
73955;DHT22;62306;52.516;13.290;2023-07-31T04:31:06;16.70;99.90
73955;DHT22;62306;52.516;13.290;2023-07-31T04:33:34;16.70;99.90
73955;DHT22;62306;52.516;13.290;2023-07-31T04:36:01;16.70;99.90
73955;DHT22;62306;52.516;13.290;2023-07-31T04:38:28;16.70;99.90
73955;DHT22;62306;52.516;13.290;2023-07-31T04:40:55;16.80;99.90
73955;DHT22;62306;52.516;13.290;2023-07-31T04:43:22;16.90;99.90
73955;DHT22;62306;52.516;13.290;2023-07-31T04:45:49;16.80;99.90
73955;DHT22;62306;52.516;13.290;2023-07-31T04:48:16;16.90;99.90
73955;DHT22;62306;52.516;13.290;2023-07-31T04:50:44;16.90;99.90
73955;DHT22;62306;52.516;13.290;2023-07-31T04:53:11;16.90;99.90
73955;DHT22;62306;52.516;13.290;2023-07-31T04:55:38;16.90;99.90
73955;DHT22;62306;52.516;13.290;2023-07-31T04:58:05;16.90;99.90
73955;DHT22;62306;52.516;13.290;2023-07-31T05:00:32;17.00;99.90
73955;DHT22;62306;52.516;13.290;2023-07-31T05:02:59;17.00;99.90
73955;DHT22;62306;52.516;13.290;2023-07-31T05:05:26;17.10;99.90
73955;DHT22;62306;52.516;13.290;2023-07-31T05:07:54;17.20;99.90
73955;DHT22;62306;52.516;13.290;2023-07-31T05:10:21;17.20;99.90
73955;DHT22;62306;52.516;13.290;2023-07-31T05:12:48;17.20;99.90
73955;DHT22;62306;52.516;13.290;2023-07-31T05:15:15;17.30;99.90
73955;DHT22;62306;52.516;13.290;2023-07-31T05:17:42;17.40;99.90
73955;DHT22;62306;52.516;13.290;2023-07-31T05:20:09;17.40;99.90
73955;DHT22;62306;52.516;13.290;2023-07-31T05:22:36;17.60;99.90
73955;DHT22;62306;52.516;13.290;2023-07-31T05:25:05;17.70;99.90
73955;DHT22;62306;52.516;13.290;2023-07-31T05:27:32;17.80;99.90
73955;DHT22;62306;52.516;13.290;2023-07-31T05:29:59;17.80;99.90
73955;DHT22;62306;52.516;13.290;2023-07-31T05:32:26;17.90;99.90
73955;DHT22;62306;52.516;13.290;2023-07-31T05:34:53;18.00;99.90
73955;DHT22;62306;52.516;13.290;2023-07-31T05:37:21;17.90;99.90
73955;DHT22;62306;52.516;13.290;2023-07-31T05:39:48;17.90;99.90
73955;DHT22;62306;52.516;13.290;2023-07-31T05:42:16;17.90;99.90
73955;DHT22;62306;52.516;13.290;2023-07-31T05:44:43;17.90;99.90
73955;DHT22;62306;52.516;13.290;2023-07-31T05:47:10;17.80;99.90
73955;DHT22;62306;52.516;13.290;2023-07-31T05:49:37;17.80;99.90
73955;DHT22;62306;52.516;13.290;2023-07-31T05:52:04;17.80;99.90
73955;DHT22;62306;52.516;13.290;2023-07-31T05:54:32;17.70;99.90
73955;DHT22;62306;52.516;13.290;2023-07-31T05:56:59;17.80;99.90
73955;DHT22;62306;52.516;13.290;2023-07-31T05:59:27;17.80;99.90
73955;DHT22;62306;52.516;13.290;2023-07-31T06:01:55;17.80;99.90
73955;DHT22;62306;52.516;13.290;2023-07-31T06:04:22;17.80;99.90
73955;DHT22;62306;52.516;13.290;2023-07-31T06:06:51;17.90;99.90
73955;DHT22;62306;52.516;13.290;2023-07-31T06:09:18;17.90;99.90
73955;DHT22;62306;52.516;13.290;2023-07-31T06:11:46;17.90;99.90
73955;DHT22;62306;52.516;13.290;2023-07-31T06:14:13;17.80;99.90
73955;DHT22;62306;52.516;13.290;2023-07-31T06:16:41;17.80;99.90
73955;DHT22;62306;52.516;13.290;2023-07-31T06:19:09;17.90;99.90
73955;DHT22;62306;52.516;13.290;2023-07-31T06:21:37;17.90;99.90
73955;DHT22;62306;52.516;13.290;2023-07-31T06:24:04;17.90;99.90
73955;DHT22;62306;52.516;13.290;2023-07-31T06:26:31;17.90;99.90
73955;DHT22;62306;52.516;13.290;2023-07-31T06:28:58;18.10;99.90
73955;DHT22;62306;52.516;13.290;2023-07-31T06:31:25;18.10;99.90
73955;DHT22;62306;52.516;13.290;2023-07-31T06:33:54;18.30;99.90
73955;DHT22;62306;52.516;13.290;2023-07-31T06:36:21;18.40;99.90
73955;DHT22;62306;52.516;13.290;2023-07-31T06:38:49;18.60;99.90
73955;DHT22;62306;52.516;13.290;2023-07-31T06:41:16;18.90;99.90
73955;DHT22;62306;52.516;13.290;2023-07-31T06:43:43;19.10;99.90
73955;DHT22;62306;52.516;13.290;2023-07-31T06:46:10;19.10;99.90
73955;DHT22;62306;52.516;13.290;2023-07-31T06:48:37;19.10;99.90
73955;DHT22;62306;52.516;13.290;2023-07-31T06:51:05;19.20;99.90
73955;DHT22;62306;52.516;13.290;2023-07-31T06:53:32;19.20;99.90
73955;DHT22;62306;52.516;13.290;2023-07-31T06:55:59;19.30;99.90
73955;DHT22;62306;52.516;13.290;2023-07-31T06:58:26;19.50;99.90
73955;DHT22;62306;52.516;13.290;2023-07-31T07:00:53;19.70;99.90
73955;DHT22;62306;52.516;13.290;2023-07-31T07:03:20;19.70;99.90
73955;DHT22;62306;52.516;13.290;2023-07-31T07:05:47;19.70;99.90
73955;DHT22;62306;52.516;13.290;2023-07-31T07:08:15;19.50;99.90
73955;DHT22;62306;52.516;13.290;2023-07-31T07:10:43;19.40;99.90
73955;DHT22;62306;52.516;13.290;2023-07-31T07:13:11;19.20;99.90
73955;DHT22;62306;52.516;13.290;2023-07-31T07:15:39;19.10;99.90
73955;DHT22;62306;52.516;13.290;2023-07-31T07:18:06;19.10;99.90
73955;DHT22;62306;52.516;13.290;2023-07-31T07:20:33;19.00;99.90
73955;DHT22;62306;52.516;13.290;2023-07-31T07:23:00;19.00;99.90
73955;DHT22;62306;52.516;13.290;2023-07-31T07:25:28;19.00;99.90
73955;DHT22;62306;52.516;13.290;2023-07-31T07:27:55;18.90;99.90
73955;DHT22;62306;52.516;13.290;2023-07-31T07:30:22;18.90;99.90
73955;DHT22;62306;52.516;13.290;2023-07-31T07:32:50;18.80;99.90
73955;DHT22;62306;52.516;13.290;2023-07-31T07:35:17;18.80;99.90
73955;DHT22;62306;52.516;13.290;2023-07-31T07:37:44;18.80;99.90
73955;DHT22;62306;52.516;13.290;2023-07-31T07:40:11;18.80;99.90
73955;DHT22;62306;52.516;13.290;2023-07-31T07:42:40;18.90;99.90
73955;DHT22;62306;52.516;13.290;2023-07-31T07:45:07;18.90;99.90
73955;DHT22;62306;52.516;13.290;2023-07-31T07:47:35;18.90;99.90
73955;DHT22;62306;52.516;13.290;2023-07-31T07:50:02;19.00;99.90
73955;DHT22;62306;52.516;13.290;2023-07-31T07:52:29;19.00;99.90
73955;DHT22;62306;52.516;13.290;2023-07-31T07:54:55;19.00;99.90
73955;DHT22;62306;52.516;13.290;2023-07-31T07:57:22;18.90;99.90
73955;DHT22;62306;52.516;13.290;2023-07-31T07:59:51;18.80;99.90
73955;DHT22;62306;52.516;13.290;2023-07-31T08:02:18;18.70;99.90
73955;DHT22;62306;52.516;13.290;2023-07-31T08:04:45;18.70;99.90
73955;DHT22;62306;52.516;13.290;2023-07-31T08:07:12;18.80;99.90
73955;DHT22;62306;52.516;13.290;2023-07-31T08:09:39;18.90;99.90
73955;DHT22;62306;52.516;13.290;2023-07-31T08:12:07;19.00;99.90
73955;DHT22;62306;52.516;13.290;2023-07-31T08:14:34;19.00;99.90
73955;DHT22;62306;52.516;13.290;2023-07-31T08:17:03;19.10;99.90
73955;DHT22;62306;52.516;13.290;2023-07-31T08:19:30;19.20;99.90
73955;DHT22;62306;52.516;13.290;2023-07-31T08:21:57;19.30;99.90
73955;DHT22;62306;52.516;13.290;2023-07-31T08:24:24;19.40;99.90
73955;DHT22;62306;52.516;13.290;2023-07-31T08:26:51;19.40;99.90
73955;DHT22;62306;52.516;13.290;2023-07-31T08:29:18;19.40;99.90
73955;DHT22;62306;52.516;13.290;2023-07-31T08:31:45;19.40;99.90
73955;DHT22;62306;52.516;13.290;2023-07-31T08:34:13;19.20;99.90
73955;DHT22;62306;52.516;13.290;2023-07-31T08:36:40;19.00;99.90
73955;DHT22;62306;52.516;13.290;2023-07-31T08:39:07;19.00;99.90
73955;DHT22;62306;52.516;13.290;2023-07-31T08:41:37;19.10;99.90
73955;DHT22;62306;52.516;13.290;2023-07-31T08:44:06;19.20;99.90
73955;DHT22;62306;52.516;13.290;2023-07-31T08:46:34;19.30;99.90
73955;DHT22;62306;52.516;13.290;2023-07-31T08:49:03;19.40;99.90
73955;DHT22;62306;52.516;13.290;2023-07-31T08:51:33;19.50;99.90
73955;DHT22;62306;52.516;13.290;2023-07-31T08:54:00;19.60;99.90
73955;DHT22;62306;52.516;13.290;2023-07-31T08:56:29;19.70;99.90
73955;DHT22;62306;52.516;13.290;2023-07-31T08:58:59;19.80;99.90
73955;DHT22;62306;52.516;13.290;2023-07-31T09:01:30;19.80;99.90
73955;DHT22;62306;52.516;13.290;2023-07-31T09:03:58;20.00;99.90
73955;DHT22;62306;52.516;13.290;2023-07-31T09:06:27;20.30;99.90
73955;DHT22;62306;52.516;13.290;2023-07-31T09:08:56;20.40;99.90
73955;DHT22;62306;52.516;13.290;2023-07-31T09:11:24;20.40;99.90
73955;DHT22;62306;52.516;13.290;2023-07-31T09:13:52;20.30;99.90
73955;DHT22;62306;52.516;13.290;2023-07-31T09:16:27;20.30;99.90
73955;DHT22;62306;52.516;13.290;2023-07-31T09:18:56;20.20;99.90
73955;DHT22;62306;52.516;13.290;2023-07-31T09:21:24;20.00;99.90
73955;DHT22;62306;52.516;13.290;2023-07-31T09:23:53;20.00;99.90
73955;DHT22;62306;52.516;13.290;2023-07-31T09:26:32;19.70;99.90
73955;DHT22;62306;52.516;13.290;2023-07-31T09:29:00;19.40;99.90
73955;DHT22;62306;52.516;13.290;2023-07-31T09:31:38;19.20;99.90
73955;DHT22;62306;52.516;13.290;2023-07-31T09:34:05;19.00;99.90
73955;DHT22;62306;52.516;13.290;2023-07-31T09:36:32;18.90;99.90
73955;DHT22;62306;52.516;13.290;2023-07-31T09:39:02;18.80;99.90
73955;DHT22;62306;52.516;13.290;2023-07-31T09:41:31;18.90;99.90
73955;DHT22;62306;52.516;13.290;2023-07-31T09:44:02;18.90;99.90
73955;DHT22;62306;52.516;13.290;2023-07-31T09:46:30;19.10;99.90
73955;DHT22;62306;52.516;13.290;2023-07-31T09:49:04;19.20;99.90
73955;DHT22;62306;52.516;13.290;2023-07-31T09:51:32;19.30;99.90
73955;DHT22;62306;52.516;13.290;2023-07-31T09:54:10;19.30;99.90
73955;DHT22;62306;52.516;13.290;2023-07-31T09:56:42;19.40;99.90
73955;DHT22;62306;52.516;13.290;2023-07-31T09:59:12;19.40;99.90
73955;DHT22;62306;52.516;13.290;2023-07-31T10:01:40;19.30;99.90
73955;DHT22;62306;52.516;13.290;2023-07-31T10:04:08;19.30;99.90
73955;DHT22;62306;52.516;13.290;2023-07-31T10:06:36;19.30;99.90
73955;DHT22;62306;52.516;13.290;2023-07-31T10:09:06;19.50;99.90
73955;DHT22;62306;52.516;13.290;2023-07-31T10:11:37;19.90;99.90
73955;DHT22;62306;52.516;13.290;2023-07-31T10:14:07;20.00;99.90
73955;DHT22;62306;52.516;13.290;2023-07-31T10:16:37;20.00;99.90
73955;DHT22;62306;52.516;13.290;2023-07-31T10:19:05;20.00;99.90
73955;DHT22;62306;52.516;13.290;2023-07-31T10:21:34;19.90;99.90
73955;DHT22;62306;52.516;13.290;2023-07-31T10:24:04;19.60;99.90
73955;DHT22;62306;52.516;13.290;2023-07-31T10:26:32;19.50;99.90
73955;DHT22;62306;52.516;13.290;2023-07-31T10:28:59;19.60;99.90
73955;DHT22;62306;52.516;13.290;2023-07-31T10:31:28;20.00;99.90
73955;DHT22;62306;52.516;13.290;2023-07-31T10:33:57;20.20;99.90
73955;DHT22;62306;52.516;13.290;2023-07-31T10:36:25;20.50;99.90
73955;DHT22;62306;52.516;13.290;2023-07-31T10:38:52;20.70;99.90
73955;DHT22;62306;52.516;13.290;2023-07-31T10:41:28;20.90;99.90
73955;DHT22;62306;52.516;13.290;2023-07-31T10:43:57;20.90;99.90
73955;DHT22;62306;52.516;13.290;2023-07-31T10:46:24;21.30;99.90
73955;DHT22;62306;52.516;13.290;2023-07-31T10:48:59;21.70;99.90
73955;DHT22;62306;52.516;13.290;2023-07-31T10:51:32;22.00;99.90
73955;DHT22;62306;52.516;13.290;2023-07-31T10:54:11;22.30;99.90
73955;DHT22;62306;52.516;13.290;2023-07-31T10:56:39;22.30;99.90
73955;DHT22;62306;52.516;13.290;2023-07-31T10:59:06;22.30;99.90
73955;DHT22;62306;52.516;13.290;2023-07-31T11:01:53;22.30;99.90
73955;DHT22;62306;52.516;13.290;2023-07-31T11:04:24;22.50;99.90
73955;DHT22;62306;52.516;13.290;2023-07-31T11:06:58;22.70;99.90
73955;DHT22;62306;52.516;13.290;2023-07-31T11:09:28;22.80;99.90
73955;DHT22;62306;52.516;13.290;2023-07-31T11:11:57;22.60;99.90
73955;DHT22;62306;52.516;13.290;2023-07-31T11:14:25;22.20;99.90
73955;DHT22;62306;52.516;13.290;2023-07-31T11:16:52;21.80;99.90
73955;DHT22;62306;52.516;13.290;2023-07-31T11:19:24;21.60;99.90
73955;DHT22;62306;52.516;13.290;2023-07-31T11:21:51;21.60;99.90
73955;DHT22;62306;52.516;13.290;2023-07-31T11:24:19;21.60;99.90
73955;DHT22;62306;52.516;13.290;2023-07-31T11:26:50;21.80;99.90
73955;DHT22;62306;52.516;13.290;2023-07-31T11:29:17;21.90;99.90
73955;DHT22;62306;52.516;13.290;2023-07-31T11:31:44;21.90;99.90
73955;DHT22;62306;52.516;13.290;2023-07-31T11:34:12;21.70;99.90
73955;DHT22;62306;52.516;13.290;2023-07-31T11:36:40;21.60;99.90
73955;DHT22;62306;52.516;13.290;2023-07-31T11:39:08;21.50;99.90
73955;DHT22;62306;52.516;13.290;2023-07-31T11:41:36;21.50;99.90
73955;DHT22;62306;52.516;13.290;2023-07-31T11:44:03;21.60;99.90
73955;DHT22;62306;52.516;13.290;2023-07-31T11:46:30;21.60;99.90
73955;DHT22;62306;52.516;13.290;2023-07-31T11:48:59;21.50;99.90
73955;DHT22;62306;52.516;13.290;2023-07-31T11:51:27;21.50;99.90
73955;DHT22;62306;52.516;13.290;2023-07-31T11:53:59;21.60;99.90
73955;DHT22;62306;52.516;13.290;2023-07-31T11:56:27;21.60;99.90
73955;DHT22;62306;52.516;13.290;2023-07-31T11:58:58;21.60;99.90
73955;DHT22;62306;52.516;13.290;2023-07-31T12:01:26;21.50;99.90
73955;DHT22;62306;52.516;13.290;2023-07-31T12:03:54;21.50;99.90
73955;DHT22;62306;52.516;13.290;2023-07-31T12:06:21;21.40;99.90
73955;DHT22;62306;52.516;13.290;2023-07-31T12:08:48;21.40;99.90
73955;DHT22;62306;52.516;13.290;2023-07-31T12:11:17;21.30;99.90
73955;DHT22;62306;52.516;13.290;2023-07-31T12:13:44;21.40;99.90
73955;DHT22;62306;52.516;13.290;2023-07-31T12:16:11;21.40;99.90
73955;DHT22;62306;52.516;13.290;2023-07-31T12:18:38;21.70;99.90
73955;DHT22;62306;52.516;13.290;2023-07-31T12:21:06;22.10;99.90
73955;DHT22;62306;52.516;13.290;2023-07-31T12:23:34;22.40;99.90
73955;DHT22;62306;52.516;13.290;2023-07-31T12:26:02;22.60;99.90
73955;DHT22;62306;52.516;13.290;2023-07-31T12:28:35;22.70;99.90
73955;DHT22;62306;52.516;13.290;2023-07-31T12:31:02;22.80;99.90
73955;DHT22;62306;52.516;13.290;2023-07-31T12:33:34;22.80;99.90
73955;DHT22;62306;52.516;13.290;2023-07-31T12:36:02;22.80;99.90
73955;DHT22;62306;52.516;13.290;2023-07-31T12:38:29;23.00;99.90
73955;DHT22;62306;52.516;13.290;2023-07-31T12:40:56;23.00;99.90
73955;DHT22;62306;52.516;13.290;2023-07-31T12:43:23;23.20;99.90
73955;DHT22;62306;52.516;13.290;2023-07-31T12:45:53;23.30;99.90
73955;DHT22;62306;52.516;13.290;2023-07-31T12:48:20;23.20;99.90
73955;DHT22;62306;52.516;13.290;2023-07-31T12:50:47;23.10;99.90
73955;DHT22;62306;52.516;13.290;2023-07-31T12:53:15;23.00;99.90
73955;DHT22;62306;52.516;13.290;2023-07-31T12:55:42;22.80;99.90
73955;DHT22;62306;52.516;13.290;2023-07-31T12:58:09;22.70;99.90
73955;DHT22;62306;52.516;13.290;2023-07-31T13:00:36;22.40;99.90
73955;DHT22;62306;52.516;13.290;2023-07-31T13:03:05;22.30;99.90
73955;DHT22;62306;52.516;13.290;2023-07-31T13:05:32;22.00;99.90
73955;DHT22;62306;52.516;13.290;2023-07-31T13:07:59;21.90;99.90
73955;DHT22;62306;52.516;13.290;2023-07-31T13:10:27;21.80;99.90
73955;DHT22;62306;52.516;13.290;2023-07-31T13:12:55;21.80;99.90
73955;DHT22;62306;52.516;13.290;2023-07-31T13:15:23;22.00;99.90
73955;DHT22;62306;52.516;13.290;2023-07-31T13:17:50;22.20;99.90
73955;DHT22;62306;52.516;13.290;2023-07-31T13:20:18;22.30;99.90
73955;DHT22;62306;52.516;13.290;2023-07-31T13:22:45;22.30;99.90
73955;DHT22;62306;52.516;13.290;2023-07-31T13:25:12;22.60;99.90
73955;DHT22;62306;52.516;13.290;2023-07-31T13:27:39;22.70;99.90
73955;DHT22;62306;52.516;13.290;2023-07-31T13:30:07;22.80;99.90
73955;DHT22;62306;52.516;13.290;2023-07-31T13:32:35;22.80;99.90
73955;DHT22;62306;52.516;13.290;2023-07-31T13:35:04;22.80;99.90
73955;DHT22;62306;52.516;13.290;2023-07-31T13:37:33;23.00;99.90
73955;DHT22;62306;52.516;13.290;2023-07-31T13:40:00;23.10;99.90
73955;DHT22;62306;52.516;13.290;2023-07-31T13:42:27;23.00;99.90
73955;DHT22;62306;52.516;13.290;2023-07-31T13:44:54;23.10;99.90
73955;DHT22;62306;52.516;13.290;2023-07-31T13:47:22;23.10;99.90
73955;DHT22;62306;52.516;13.290;2023-07-31T13:49:49;23.10;99.90
73955;DHT22;62306;52.516;13.290;2023-07-31T13:52:16;23.20;99.90
73955;DHT22;62306;52.516;13.290;2023-07-31T13:54:44;23.30;99.80
73955;DHT22;62306;52.516;13.290;2023-07-31T13:57:12;23.30;99.40
73955;DHT22;62306;52.516;13.290;2023-07-31T13:59:39;23.10;99.60
73955;DHT22;62306;52.516;13.290;2023-07-31T14:02:07;23.00;99.90
73955;DHT22;62306;52.516;13.290;2023-07-31T14:04:34;22.90;99.90
73955;DHT22;62306;52.516;13.290;2023-07-31T14:07:00;22.90;99.90
73955;DHT22;62306;52.516;13.290;2023-07-31T14:09:28;22.80;99.90
73955;DHT22;62306;52.516;13.290;2023-07-31T14:11:57;22.80;99.90
73955;DHT22;62306;52.516;13.290;2023-07-31T14:14:24;22.70;99.90
73955;DHT22;62306;52.516;13.290;2023-07-31T14:16:51;22.70;99.90
73955;DHT22;62306;52.516;13.290;2023-07-31T14:19:18;22.70;99.90
73955;DHT22;62306;52.516;13.290;2023-07-31T14:21:45;22.70;99.90
73955;DHT22;62306;52.516;13.290;2023-07-31T14:24:12;22.60;99.90
73955;DHT22;62306;52.516;13.290;2023-07-31T14:26:39;22.70;99.90
73955;DHT22;62306;52.516;13.290;2023-07-31T14:29:08;22.70;99.90
73955;DHT22;62306;52.516;13.290;2023-07-31T14:31:36;22.70;99.90
73955;DHT22;62306;52.516;13.290;2023-07-31T14:34:03;22.80;99.90
73955;DHT22;62306;52.516;13.290;2023-07-31T14:36:30;22.90;99.90
73955;DHT22;62306;52.516;13.290;2023-07-31T14:38:57;22.80;99.90
73955;DHT22;62306;52.516;13.290;2023-07-31T14:41:23;22.80;99.90
73955;DHT22;62306;52.516;13.290;2023-07-31T14:43:50;22.70;99.90
73955;DHT22;62306;52.516;13.290;2023-07-31T14:46:19;22.60;99.90
73955;DHT22;62306;52.516;13.290;2023-07-31T14:48:46;22.40;99.90
73955;DHT22;62306;52.516;13.290;2023-07-31T14:51:13;22.40;99.90
73955;DHT22;62306;52.516;13.290;2023-07-31T14:53:40;22.30;99.90
73955;DHT22;62306;52.516;13.290;2023-07-31T14:56:07;22.20;99.90
73955;DHT22;62306;52.516;13.290;2023-07-31T14:58:34;22.10;99.90
73955;DHT22;62306;52.516;13.290;2023-07-31T15:01:01;22.00;99.90
73955;DHT22;62306;52.516;13.290;2023-07-31T15:03:29;21.90;99.90
73955;DHT22;62306;52.516;13.290;2023-07-31T15:05:56;21.90;99.90
73955;DHT22;62306;52.516;13.290;2023-07-31T15:08:23;21.80;99.90
73955;DHT22;62306;52.516;13.290;2023-07-31T15:10:50;21.80;99.90
73955;DHT22;62306;52.516;13.290;2023-07-31T15:13:23;21.80;99.90
73955;DHT22;62306;52.516;13.290;2023-07-31T15:15:50;21.70;99.90
73955;DHT22;62306;52.516;13.290;2023-07-31T15:18:17;21.60;99.90
73955;DHT22;62306;52.516;13.290;2023-07-31T15:20:45;21.80;99.90